Etusivu
METAR-TAF:

METAR-TAF

Lentoasemat :

Jasper County Airport (Bell Field)

Jasper, Texas, Yhdysvallat

Leveyspiiri: 30-53-08N, Pituuspiiri: 094-02-05W, korkeus merenpinnasta: 65 m

Tämänhetkinen sää

Tämä raportti tehtiin 25 minuuttia sitten, kello 10.15 UTC
Tuuli 5 kn etelästä
Lämpötila 21°C
Kosteus 100%
Ilmanpaine 1015 hPa
Näkyvyys: 6.4 km
Pilvistä 400 ft:n korkeudessa
utua

METAR: KJAS 181015Z AUTO 18005KT 4SM BR OVC004 21/21 A2996 RMK AO2 T02140207

Aika: 04:40 (10:40 UTC)


TAF: puuttuu

Säähavainnot ja -ennusteet yli 4000 lentoasemalta (METAR- ja TAF-raportit).

Käytössä olevat sääasemat on merkitty karttaan keltaisilla ja punaisilla pisteillä.

Aseta hiiri pisteen päälle nähdäksesi sääaseman nimen.

Klikkaa sitten nähdäksesi säähavainnot ja -ennusteet.

Kartan vaihtaminen: klikkaa mustalla rastilla varustettuja vihreitä pisteitä, niin voit zoomata sisään; viivalla varustettua vihreää pistettä, niin voit zoomata ulos tai vihreitä nuolia, niin pääset viereisille kartoille.


METAR-TAF: